createdAt,value
2017-01-04T00:00:01.456Z,0
2017-01-04T00:01:01.096Z,0
2017-01-04T00:02:01.121Z,0
2017-01-04T00:03:01.153Z,0
2017-01-04T00:04:00.382Z,0
2017-01-04T00:05:00.823Z,0
2017-01-04T00:06:00.848Z,0
2017-01-04T00:07:01.250Z,0
2017-01-04T00:08:00.886Z,0
2017-01-04T00:09:01.698Z,0
2017-01-04T00:10:01.742Z,0
2017-01-04T00:11:01.364Z,0
2017-01-04T00:12:01.384Z,0
2017-01-04T00:13:01.406Z,0
2017-01-04T00:14:01.834Z,0
2017-01-04T00:15:00.679Z,0
2017-01-04T00:16:01.088Z,0
2017-01-04T00:17:01.512Z,0
2017-01-04T00:18:01.153Z,0
2017-01-04T00:19:00.806Z,0
2017-01-04T00:20:01.599Z,0
2017-01-04T00:21:00.863Z,0
2017-01-04T00:22:00.860Z,0
2017-01-04T00:23:02.069Z,0
2017-01-04T00:24:02.109Z,0
2017-01-04T00:25:01.334Z,0
2017-01-04T00:26:01.763Z,0
2017-01-04T00:27:01.384Z,0
2017-01-04T00:28:01.425Z,0
2017-01-04T00:29:01.445Z,0
2017-01-04T00:30:01.862Z,0
2017-01-04T00:31:01.499Z,0
2017-01-04T00:32:01.915Z,0
2017-01-04T00:33:01.945Z,0
2017-01-04T00:34:02.361Z,0
2017-01-04T00:35:01.597Z,0
2017-01-04T00:36:02.014Z,0
2017-01-04T00:37:02.047Z,0
2017-01-04T00:38:01.313Z,0
2017-01-04T00:39:01.704Z,0
2017-01-04T00:40:01.730Z,0
2017-01-04T00:41:02.550Z,0
2017-01-04T00:42:01.787Z,0
2017-01-04T00:43:02.608Z,0
2017-01-04T00:44:02.233Z,0
2017-01-04T00:45:02.257Z,0
2017-01-04T00:46:02.294Z,0
2017-01-04T00:47:02.707Z,0
2017-01-04T00:48:01.944Z,0
2017-01-04T00:49:01.969Z,0
2017-01-04T00:50:01.602Z,0
2017-01-04T00:51:02.034Z,0
2017-01-04T00:52:02.839Z,0
2017-01-04T00:53:02.472Z,0
2017-01-04T00:54:02.900Z,0
2017-01-04T00:55:02.925Z,0
2017-01-04T00:56:02.154Z,0
2017-01-04T00:57:02.183Z,0
2017-01-04T00:58:01.819Z,0
2017-01-04T00:59:01.836Z,0
2017-01-04T01:00:02.257Z,0
2017-01-04T01:01:02.282Z,0
2017-01-04T01:02:02.707Z,0
2017-01-04T01:03:01.940Z,0
2017-01-04T01:04:02.356Z,0
2017-01-04T01:05:03.177Z,0
2017-01-04T01:06:02.804Z,0
2017-01-04T01:07:02.039Z,0
2017-01-04T01:08:02.859Z,0
2017-01-04T01:09:02.100Z,0
2017-01-04T01:10:02.922Z,0
2017-01-04T01:11:02.545Z,0
2017-01-04T01:12:03.026Z,0
2017-01-04T01:13:02.992Z,0
2017-01-04T01:14:03.020Z,0
2017-01-04T01:15:03.041Z,0
2017-01-04T01:16:03.077Z,0
2017-01-04T01:17:02.694Z,0
2017-01-04T01:18:03.523Z,0
2017-01-04T01:19:03.152Z,0
2017-01-04T01:20:03.572Z,0
2017-01-04T01:21:02.409Z,0
2017-01-04T01:22:02.834Z,0
2017-01-04T01:23:03.258Z,0
2017-01-04T01:24:02.888Z,0
2017-01-04T01:25:02.912Z,0
2017-01-04T01:26:03.336Z,0
2017-01-04T01:27:03.352Z,0
2017-01-04T01:28:02.990Z,0
2017-01-04T01:29:03.023Z,0
2017-01-04T01:30:03.040Z,0
2017-01-04T01:31:03.077Z,0
2017-01-04T01:32:03.089Z,0
2017-01-04T01:33:03.119Z,0
2017-01-04T01:34:03.547Z,0
2017-01-04T01:35:03.572Z,0
2017-01-04T01:36:03.201Z,0
2017-01-04T01:37:03.221Z,0
2017-01-04T01:38:03.666Z,0
2017-01-04T01:39:03.678Z,0
2017-01-04T01:40:03.304Z,0
2017-01-04T01:41:03.336Z,0
2017-01-04T01:42:04.154Z,0
2017-01-04T01:43:02.986Z,0
2017-01-04T01:44:03.797Z,0
2017-01-04T01:45:03.440Z,0
2017-01-04T01:46:04.252Z,0
2017-01-04T01:47:03.481Z,0
2017-01-04T01:48:03.914Z,0
2017-01-04T01:49:04.335Z,0
2017-01-04T01:50:03.967Z,0
2017-01-04T01:51:03.588Z,0
2017-01-04T01:52:03.617Z,0
2017-01-04T01:53:03.243Z,0
2017-01-04T01:54:04.066Z,0
2017-01-04T01:55:04.087Z,0
2017-01-04T01:56:04.508Z,0
2017-01-04T01:57:03.753Z,0
2017-01-04T01:58:03.773Z,0
2017-01-04T01:59:03.794Z,0
2017-01-04T02:00:03.822Z,0
2017-01-04T02:01:03.856Z,0
2017-01-04T02:02:04.300Z,0
2017-01-04T02:03:03.505Z,0
2017-01-04T02:04:03.538Z,0
2017-01-04T02:05:03.979Z,0
2017-01-04T02:06:03.984Z,0
2017-01-04T02:07:04.016Z,0
2017-01-04T02:08:03.641Z,0
2017-01-04T02:09:04.057Z,0
2017-01-04T02:10:04.086Z,0
2017-01-04T02:11:03.724Z,0
2017-01-04T02:12:04.559Z,0
2017-01-04T02:13:03.769Z,0
2017-01-04T02:14:03.793Z,0
2017-01-04T02:15:04.219Z,0
2017-01-04T02:16:05.034Z,0
2017-01-04T02:17:04.659Z,0
2017-01-04T02:18:05.088Z,0
2017-01-04T02:19:04.309Z,0
2017-01-04T02:20:04.731Z,0
2017-01-04T02:21:03.983Z,0
2017-01-04T02:22:04.395Z,0
2017-01-04T02:23:04.420Z,0
2017-01-04T02:24:04.449Z,0
2017-01-04T02:25:04.474Z,0
2017-01-04T02:26:04.506Z,0
2017-01-04T02:27:04.931Z,0
2017-01-04T02:28:04.552Z,0
2017-01-04T02:29:04.976Z,0
2017-01-04T02:30:04.217Z,0
2017-01-04T02:31:04.635Z,0
2017-01-04T02:32:05.051Z,0
2017-01-04T02:33:04.292Z,0
2017-01-04T02:34:05.121Z,0
2017-01-04T02:35:04.741Z,0
2017-01-04T02:36:05.550Z,0
2017-01-04T02:37:05.582Z,0
2017-01-04T02:38:05.606Z,0
2017-01-04T02:39:04.835Z,0
2017-01-04T02:40:05.660Z,0
2017-01-04T02:41:05.285Z,0
2017-01-04T02:42:04.918Z,0
2017-01-04T02:43:04.578Z,0
2017-01-04T02:44:04.572Z,0
2017-01-04T02:45:05.789Z,0
2017-01-04T02:46:05.453Z,0
2017-01-04T02:47:05.863Z,0
2017-01-04T02:48:05.462Z,0
2017-01-04T02:49:05.102Z,0
2017-01-04T02:50:04.728Z,0
2017-01-04T02:51:05.157Z,0
2017-01-04T02:52:05.177Z,0
2017-01-04T02:53:05.602Z,0
2017-01-04T02:54:05.627Z,0
2017-01-04T02:55:06.052Z,0
2017-01-04T02:56:05.673Z,0
2017-01-04T02:57:06.113Z,0
2017-01-04T02:58:05.723Z,0
2017-01-04T02:59:05.758Z,0
2017-01-04T03:00:05.784Z,0
2017-01-04T03:01:05.412Z,0
2017-01-04T03:02:05.440Z,0
2017-01-04T03:03:05.857Z,0
2017-01-04T03:04:05.490Z,0
2017-01-04T03:05:05.912Z,0
2017-01-04T03:06:06.336Z,0
2017-01-04T03:07:06.357Z,0
2017-01-04T03:08:05.987Z,0
2017-01-04T03:09:05.614Z,0
2017-01-04T03:10:06.034Z,0
2017-01-04T03:11:05.676Z,0
2017-01-04T03:12:06.092Z,0
2017-01-04T03:13:06.122Z,0
2017-01-04T03:14:06.146Z,0
2017-01-04T03:15:06.175Z,0
2017-01-04T03:16:06.592Z,0
2017-01-04T03:17:06.224Z,0
2017-01-04T03:18:06.645Z,0
2017-01-04T03:19:06.274Z,0
2017-01-04T03:20:06.303Z,0
2017-01-04T03:21:05.931Z,0
2017-01-04T03:22:06.752Z,0
2017-01-04T03:23:05.583Z,0
2017-01-04T03:24:05.617Z,0
2017-01-04T03:25:06.042Z,0
2017-01-04T03:26:06.455Z,0
2017-01-04T03:27:06.487Z,0
2017-01-04T03:28:06.113Z,0
2017-01-04T03:29:06.137Z,0
2017-01-04T03:30:06.552Z,0
2017-01-04T03:31:06.203Z,0
2017-01-04T03:32:07.007Z,0
2017-01-04T03:33:05.853Z,0
2017-01-04T03:34:05.873Z,0
2017-01-04T03:35:06.689Z,0
2017-01-04T03:36:06.763Z,0
2017-01-04T03:37:07.131Z,0
2017-01-04T03:38:06.375Z,0
2017-01-04T03:39:06.396Z,0
2017-01-04T03:40:06.813Z,0
2017-01-04T03:41:06.838Z,0
2017-01-04T03:42:06.471Z,0
2017-01-04T03:43:06.500Z,0
2017-01-04T03:44:06.128Z,0
2017-01-04T03:45:06.953Z,0
2017-01-04T03:46:06.178Z,0
2017-01-04T03:47:06.999Z,0
2017-01-04T03:48:06.631Z,0
2017-01-04T03:49:06.656Z,0
2017-01-04T03:50:07.477Z,0
2017-01-04T03:51:06.705Z,0
2017-01-04T03:52:07.130Z,0
2017-01-04T03:53:06.763Z,0
2017-01-04T03:54:06.380Z,0
2017-01-04T03:55:06.412Z,0
2017-01-04T03:56:07.241Z,0
2017-01-04T03:57:07.266Z,0
2017-01-04T03:58:06.895Z,0
2017-01-04T03:59:07.307Z,0
2017-01-04T04:00:07.337Z,0
2017-01-04T04:01:07.365Z,0
2017-01-04T04:02:06.594Z,0
2017-01-04T04:03:06.615Z,0
2017-01-04T04:04:06.639Z,0
2017-01-04T04:05:07.492Z,0
2017-01-04T04:06:07.503Z,0
2017-01-04T04:07:07.914Z,0
2017-01-04T04:08:07.142Z,0
2017-01-04T04:09:07.175Z,0
2017-01-04T04:10:07.206Z,0
2017-01-04T04:11:07.620Z,0
2017-01-04T04:12:07.649Z,0
2017-01-04T04:13:08.062Z,0
2017-01-04T04:14:07.699Z,0
2017-01-04T04:15:07.726Z,0
2017-01-04T04:16:07.760Z,0
2017-01-04T04:17:07.765Z,0
2017-01-04T04:18:07.803Z,0
2017-01-04T04:19:07.826Z,0
2017-01-04T04:20:07.063Z,0
2017-01-04T04:21:07.488Z,0
2017-01-04T04:22:07.905Z,0
2017-01-04T04:23:07.142Z,0
2017-01-04T04:24:07.562Z,0
2017-01-04T04:25:07.979Z,0
2017-01-04T04:26:08.008Z,0
2017-01-04T04:27:08.036Z,0
2017-01-04T04:28:07.269Z,0
2017-01-04T04:29:07.686Z,0
2017-01-04T04:30:07.714Z,0
2017-01-04T04:31:08.533Z,0
2017-01-04T04:32:08.160Z,0
2017-01-04T04:33:08.189Z,0
2017-01-04T04:34:08.610Z,0
2017-01-04T04:35:08.242Z,0
2017-01-04T04:36:07.471Z,0
2017-01-04T04:37:07.500Z,0
2017-01-04T04:38:07.536Z,0
2017-01-04T04:39:07.554Z,0
2017-01-04T04:40:07.977Z,0
2017-01-04T04:41:07.999Z,0
2017-01-04T04:42:08.032Z,0
2017-01-04T04:43:08.439Z,0
2017-01-04T04:44:08.468Z,0
2017-01-04T04:45:08.890Z,0
2017-01-04T04:46:08.529Z,0
2017-01-04T04:47:08.155Z,0
2017-01-04T04:48:08.588Z,0
2017-01-04T04:49:07.804Z,0
2017-01-04T04:50:08.633Z,0
2017-01-04T04:51:07.855Z,0
2017-01-04T04:52:08.276Z,0
2017-01-04T04:53:08.303Z,0
2017-01-04T04:54:08.733Z,0
2017-01-04T04:55:08.753Z,0
2017-01-04T04:56:08.782Z,0
2017-01-04T04:57:08.414Z,0
2017-01-04T04:58:08.043Z,0
2017-01-04T04:59:08.472Z,0
2017-01-04T05:00:09.471Z,0
2017-01-04T05:01:08.517Z,0
2017-01-04T05:02:08.147Z,0
2017-01-04T05:03:08.963Z,0
2017-01-04T05:04:08.988Z,0
2017-01-04T05:05:09.016Z,0
2017-01-04T05:06:09.045Z,0
2017-01-04T05:07:08.670Z,0
2017-01-04T05:08:08.306Z,0
2017-01-04T05:09:09.119Z,0
2017-01-04T05:10:08.744Z,0
2017-01-04T05:11:08.381Z,0
2017-01-04T05:12:08.801Z,0
2017-01-04T05:13:09.614Z,0
2017-01-04T05:14:08.847Z,0
2017-01-04T05:15:08.875Z,0
2017-01-04T05:16:08.904Z,0
2017-01-04T05:17:09.325Z,0
2017-01-04T05:18:08.950Z,0
2017-01-04T05:19:08.984Z,0
2017-01-04T05:20:09.007Z,0
2017-01-04T05:21:09.424Z,0
2017-01-04T05:22:08.660Z,0
2017-01-04T05:23:09.873Z,0
2017-01-04T05:24:09.907Z,0
2017-01-04T05:25:08.735Z,0
2017-01-04T05:26:09.159Z,0
2017-01-04T05:27:09.201Z,0
2017-01-04T05:28:10.001Z,0
2017-01-04T05:29:09.242Z,0
2017-01-04T05:30:09.302Z,0
2017-01-04T05:31:08.879Z,0
2017-01-04T05:32:09.316Z,0
2017-01-04T05:33:09.738Z,0
2017-01-04T05:34:10.169Z,0
2017-01-04T05:35:08.998Z,0
2017-01-04T05:36:09.022Z,0
2017-01-04T05:37:09.435Z,0
2017-01-04T05:38:09.488Z,0
2017-01-04T05:39:09.892Z,0
2017-01-04T05:40:09.517Z,0
2017-01-04T05:41:09.150Z,0
2017-01-04T05:42:10.359Z,0
2017-01-04T05:43:09.998Z,0
2017-01-04T05:44:10.412Z,0
2017-01-04T05:45:10.439Z,0
2017-01-04T05:46:09.277Z,0
2017-01-04T05:47:09.301Z,0
2017-01-04T05:48:09.328Z,0
2017-01-04T05:49:09.758Z,0
2017-01-04T05:50:10.167Z,0
2017-01-04T05:51:09.408Z,0
2017-01-04T05:52:10.232Z,0
2017-01-04T05:53:10.648Z,0
2017-01-04T05:54:09.881Z,0
2017-01-04T05:55:09.519Z,0
2017-01-04T05:56:10.331Z,0
2017-01-04T05:57:09.571Z,0
2017-01-04T05:58:09.988Z,0
2017-01-04T05:59:10.012Z,0
2017-01-04T06:00:10.033Z,0
2017-01-04T06:01:09.666Z,0
2017-01-04T06:02:10.488Z,0
2017-01-04T06:03:10.120Z,0
2017-01-04T06:04:10.560Z,0
2017-01-04T06:05:10.168Z,0
2017-01-04T06:06:10.587Z,0
2017-01-04T06:07:10.617Z,0
2017-01-04T06:08:10.270Z,0
2017-01-04T06:09:09.870Z,0
2017-01-04T06:10:10.289Z,0
2017-01-04T06:11:09.924Z,0
2017-01-04T06:12:10.345Z,0
2017-01-04T06:13:10.769Z,0
2017-01-04T06:14:11.190Z,0
2017-01-04T06:15:11.207Z,0
2017-01-04T06:16:11.251Z,0
2017-01-04T06:17:10.479Z,0
2017-01-04T06:18:10.504Z,0
2017-01-04T06:19:10.529Z,0
2017-01-04T06:20:10.549Z,0
2017-01-04T06:21:10.978Z,0
2017-01-04T06:22:11.405Z,0
2017-01-04T06:23:10.631Z,0
2017-01-04T06:24:10.661Z,0
2017-01-04T06:25:11.469Z,0
2017-01-04T06:26:11.102Z,0
2017-01-04T06:27:11.527Z,0
2017-01-04T06:28:10.366Z,0
2017-01-04T06:29:11.187Z,0
2017-01-04T06:30:11.204Z,0
2017-01-04T06:31:10.448Z,0
2017-01-04T06:32:10.476Z,0
2017-01-04T06:33:11.286Z,0
2017-01-04T06:34:11.315Z,0
2017-01-04T06:35:10.946Z,0
2017-01-04T06:36:11.364Z,0
2017-01-04T06:37:11.393Z,0
2017-01-04T06:38:11.441Z,0
2017-01-04T06:39:11.842Z,0
2017-01-04T06:40:11.471Z,0
2017-01-04T06:41:10.698Z,0
2017-01-04T06:42:11.120Z,0
2017-01-04T06:43:11.152Z,0
2017-01-04T06:44:10.781Z,0
2017-01-04T06:45:11.201Z,0
2017-01-04T06:46:11.235Z,0
2017-01-04T06:47:12.045Z,0
2017-01-04T06:48:11.280Z,0
2017-01-04T06:49:11.701Z,0
2017-01-04T06:50:11.722Z,0
2017-01-04T06:51:12.154Z,0
2017-01-04T06:52:11.786Z,0
2017-01-04T06:53:11.018Z,0
2017-01-04T06:54:11.436Z,0
2017-01-04T06:55:12.284Z,0
2017-01-04T06:56:11.514Z,0
2017-01-04T06:57:11.913Z,0
2017-01-04T06:58:11.546Z,0
2017-01-04T06:59:11.563Z,0
2017-01-04T07:00:11.996Z,0
2017-01-04T07:01:12.412Z,0
2017-01-04T07:02:12.038Z,0
2017-01-04T07:03:12.061Z,0
2017-01-04T07:04:12.094Z,0
2017-01-04T07:05:11.714Z,0
2017-01-04T07:06:12.151Z,0
2017-01-04T07:07:12.180Z,0
2017-01-04T07:08:11.804Z,0
2017-01-04T07:09:11.456Z,0
2017-01-04T07:10:11.863Z,0
2017-01-04T07:11:12.669Z,4
2017-01-04T07:12:12.298Z,4
2017-01-04T07:13:11.953Z,4
2017-01-04T07:14:12.747Z,0
2017-01-04T07:15:12.384Z,4
2017-01-04T07:16:12.004Z,4
2017-01-04T07:17:12.035Z,8
2017-01-04T07:18:12.085Z,4
2017-01-04T07:19:12.089Z,4
2017-01-04T07:20:12.114Z,8
2017-01-04T07:21:12.531Z,4
2017-01-04T07:22:12.566Z,8
2017-01-04T07:23:12.988Z,12
2017-01-04T07:24:13.021Z,8
2017-01-04T07:25:11.849Z,8
2017-01-04T07:26:12.273Z,8
2017-01-04T07:27:12.298Z,12
2017-01-04T07:28:12.723Z,12
2017-01-04T07:29:11.971Z,16
2017-01-04T07:30:12.675Z,12
2017-01-04T07:31:12.000Z,12
2017-01-04T07:32:13.219Z,12
2017-01-04T07:33:12.842Z,16
2017-01-04T07:34:13.274Z,20
2017-01-04T07:35:12.115Z,20
2017-01-04T07:36:12.931Z,20
2017-01-04T07:37:12.559Z,20
2017-01-04T07:38:12.592Z,24
2017-01-04T07:39:12.616Z,20
2017-01-04T07:40:12.236Z,20
2017-01-04T07:41:12.661Z,20
2017-01-04T07:42:12.690Z,24
2017-01-04T07:43:13.514Z,32
2017-01-04T07:44:13.143Z,44
2017-01-04T07:45:13.560Z,32
2017-01-04T07:46:13.199Z,32
2017-01-04T07:47:12.820Z,32
2017-01-04T07:48:12.840Z,36
2017-01-04T07:49:12.877Z,32
2017-01-04T07:50:12.897Z,32
2017-01-04T07:51:12.921Z,32
2017-01-04T07:52:12.550Z,32
2017-01-04T07:53:12.971Z,52
2017-01-04T07:54:13.007Z,44
2017-01-04T07:55:13.840Z,48
2017-01-04T07:56:13.056Z,44
2017-01-04T07:57:13.480Z,44
2017-01-04T07:58:13.106Z,40
2017-01-04T07:59:13.134Z,44
2017-01-04T08:00:13.558Z,56
2017-01-04T08:01:13.591Z,52
2017-01-04T08:02:13.603Z,52
2017-01-04T08:03:12.864Z,52
2017-01-04T08:04:13.264Z,56
2017-01-04T08:05:13.693Z,52
2017-01-04T08:06:13.711Z,56
2017-01-04T08:07:13.342Z,56
2017-01-04T08:08:13.762Z,56
2017-01-04T08:09:12.998Z,64
2017-01-04T08:10:13.807Z,60
2017-01-04T08:11:13.443Z,64
2017-01-04T08:12:13.472Z,60
2017-01-04T08:13:13.494Z,76
2017-01-04T08:14:13.125Z,80
2017-01-04T08:15:13.554Z,72
2017-01-04T08:16:13.583Z,84
2017-01-04T08:17:14.396Z,84
2017-01-04T08:18:13.616Z,88
2017-01-04T08:19:13.656Z,84
2017-01-04T08:20:13.734Z,84
2017-01-04T08:21:13.714Z,88
2017-01-04T08:22:13.359Z,92
2017-01-04T08:23:14.163Z,136
2017-01-04T08:24:13.778Z,112
2017-01-04T08:25:13.408Z,112
2017-01-04T08:26:13.441Z,120
2017-01-04T08:27:13.863Z,112
2017-01-04T08:28:14.679Z,116
2017-01-04T08:29:13.911Z,132
2017-01-04T08:30:13.580Z,144
2017-01-04T08:31:13.973Z,136
2017-01-04T08:32:14.389Z,112
2017-01-04T08:33:14.027Z,132
2017-01-04T08:34:14.052Z,140
2017-01-04T08:35:14.077Z,140
2017-01-04T08:36:14.549Z,144
2017-01-04T08:37:14.130Z,172
2017-01-04T08:38:14.555Z,180
2017-01-04T08:39:14.568Z,168
2017-01-04T08:40:14.593Z,184
2017-01-04T08:41:14.233Z,200
2017-01-04T08:42:14.263Z,228
2017-01-04T08:43:14.686Z,204
2017-01-04T08:44:14.707Z,188
2017-01-04T08:45:14.739Z,188
2017-01-04T08:46:14.757Z,180
2017-01-04T08:47:14.398Z,192
2017-01-04T08:48:14.419Z,220
2017-01-04T08:49:14.840Z,224
2017-01-04T08:50:15.265Z,204
2017-01-04T08:51:14.097Z,248
2017-01-04T08:52:14.126Z,268
2017-01-04T08:53:14.563Z,264
2017-01-04T08:54:14.571Z,276
2017-01-04T08:55:14.596Z,228
2017-01-04T08:56:14.230Z,244
2017-01-04T08:57:14.255Z,232
2017-01-04T08:58:15.080Z,248
2017-01-04T08:59:15.101Z,204
2017-01-04T09:00:15.126Z,244
2017-01-04T09:01:15.154Z,236
2017-01-04T09:02:14.785Z,204
2017-01-04T09:03:14.815Z,200
2017-01-04T09:04:15.633Z,216
2017-01-04T09:05:14.862Z,216
2017-01-04T09:06:14.879Z,236
2017-01-04T09:07:14.913Z,196
2017-01-04T09:08:15.336Z,236
2017-01-04T09:09:14.977Z,236
2017-01-04T09:10:15.003Z,256
2017-01-04T09:11:15.818Z,236
2017-01-04T09:12:15.043Z,232
2017-01-04T09:13:15.076Z,220
2017-01-04T09:14:15.921Z,212
2017-01-04T09:15:15.130Z,208
2017-01-04T09:16:15.551Z,232
2017-01-04T09:17:15.567Z,224
2017-01-04T09:18:15.220Z,256
2017-01-04T09:19:16.019Z,300
2017-01-04T09:20:16.051Z,356
2017-01-04T09:21:15.295Z,300
2017-01-04T09:22:15.316Z,280
2017-01-04T09:23:15.332Z,336
2017-01-04T09:24:15.768Z,424
2017-01-04T09:25:15.016Z,412
2017-01-04T09:26:15.023Z,424
2017-01-04T09:27:15.448Z,544
2017-01-04T09:28:15.469Z,472
2017-01-04T09:29:16.310Z,440
2017-01-04T09:30:15.925Z,396
2017-01-04T09:31:15.946Z,460
2017-01-04T09:32:15.971Z,520
2017-01-04T09:33:16.001Z,524
2017-01-04T09:34:16.437Z,508
2017-01-04T09:35:15.242Z,760
2017-01-04T09:36:15.682Z,624
2017-01-04T09:37:15.707Z,612
2017-01-04T09:38:15.728Z,664
2017-01-04T09:39:16.145Z,616
2017-01-04T09:40:15.789Z,628
2017-01-04T09:41:16.208Z,636
2017-01-04T09:42:16.623Z,484
2017-01-04T09:43:15.912Z,480
2017-01-04T09:44:15.891Z,640
2017-01-04T09:45:15.917Z,664
2017-01-04T09:46:15.952Z,612
2017-01-04T09:47:15.606Z,672
2017-01-04T09:48:15.993Z,780
2017-01-04T09:49:16.015Z,688
2017-01-04T09:50:16.045Z,728
2017-01-04T09:51:16.470Z,800
2017-01-04T09:52:16.130Z,740
2017-01-04T09:53:16.520Z,616
2017-01-04T09:54:16.532Z,684
2017-01-04T09:55:16.168Z,732
2017-01-04T09:56:16.198Z,636
2017-01-04T09:57:16.235Z,780
2017-01-04T09:58:16.647Z,856
2017-01-04T09:59:16.316Z,840
2017-01-04T10:00:15.908Z,740
2017-01-04T10:01:16.729Z,980
2017-01-04T10:02:17.146Z,884
2017-01-04T10:03:17.179Z,976
2017-01-04T10:04:16.407Z,856
2017-01-04T10:05:16.456Z,804
2017-01-04T10:06:16.865Z,820
2017-01-04T10:07:16.489Z,716
2017-01-04T10:08:16.906Z,724
2017-01-04T10:09:16.147Z,652
2017-01-04T10:10:16.595Z,588
2017-01-04T10:11:16.991Z,680
2017-01-04T10:12:17.413Z,660
2017-01-04T10:13:17.041Z,720
2017-01-04T10:14:17.066Z,768
2017-01-04T10:15:16.299Z,828
2017-01-04T10:16:16.332Z,752
2017-01-04T10:17:16.756Z,660
2017-01-04T10:18:16.773Z,612
2017-01-04T10:19:16.410Z,656
2017-01-04T10:20:17.619Z,700
2017-01-04T10:21:17.647Z,692
2017-01-04T10:22:17.269Z,716
2017-01-04T10:23:16.904Z,676
2017-01-04T10:24:16.921Z,720
2017-01-04T10:25:17.355Z,592
2017-01-04T10:26:16.988Z,620
2017-01-04T10:27:17.012Z,628
2017-01-04T10:28:17.437Z,680
2017-01-04T10:29:17.062Z,712
2017-01-04T10:30:17.091Z,748
2017-01-04T10:31:17.103Z,684
2017-01-04T10:32:17.531Z,644
2017-01-04T10:33:17.591Z,584
2017-01-04T10:34:17.193Z,612
2017-01-04T10:35:17.210Z,604
2017-01-04T10:36:17.250Z,612
2017-01-04T10:37:17.275Z,544
2017-01-04T10:38:17.288Z,596
2017-01-04T10:39:17.777Z,600
2017-01-04T10:40:16.962Z,756
2017-01-04T10:41:17.770Z,688
2017-01-04T10:42:17.796Z,624
2017-01-04T10:43:18.213Z,528
2017-01-04T10:44:17.457Z,468
2017-01-04T10:45:17.478Z,416
2017-01-04T10:46:17.922Z,420
2017-01-04T10:47:17.539Z,420
2017-01-04T10:48:17.979Z,444
2017-01-04T10:49:17.583Z,464
2017-01-04T10:50:17.601Z,524
2017-01-04T10:51:18.033Z,632
2017-01-04T10:52:18.062Z,580
2017-01-04T10:53:18.087Z,508
2017-01-04T10:54:18.108Z,420
2017-01-04T10:55:17.736Z,412
2017-01-04T10:56:17.765Z,360
2017-01-04T10:57:17.797Z,368
2017-01-04T10:58:17.823Z,352
2017-01-04T10:59:17.844Z,376
2017-01-04T11:00:18.260Z,372
2017-01-04T11:01:18.694Z,340
2017-01-04T11:02:18.357Z,380
2017-01-04T11:03:18.738Z,408
2017-01-04T11:04:18.387Z,432
2017-01-04T11:05:17.604Z,476
2017-01-04T11:06:18.028Z,428
2017-01-04T11:07:17.662Z,412
2017-01-04T11:08:18.474Z,404
2017-01-04T11:09:18.899Z,428
2017-01-04T11:10:18.131Z,436
2017-01-04T11:11:18.559Z,400
2017-01-04T11:12:18.976Z,352
2017-01-04T11:13:18.601Z,388
2017-01-04T11:14:18.238Z,352
2017-01-04T11:15:18.656Z,388
2017-01-04T11:16:18.295Z,504
2017-01-04T11:17:18.308Z,484
2017-01-04T11:18:18.737Z,464
2017-01-04T11:19:18.368Z,456
2017-01-04T11:20:18.395Z,468
2017-01-04T11:21:18.812Z,600
2017-01-04T11:22:19.231Z,624
2017-01-04T11:23:19.260Z,632
2017-01-04T11:24:18.125Z,620
2017-01-04T11:25:18.914Z,668
2017-01-04T11:26:18.547Z,648
2017-01-04T11:27:18.576Z,644
2017-01-04T11:28:18.232Z,748
2017-01-04T11:29:19.041Z,720
2017-01-04T11:30:19.046Z,820
2017-01-04T11:31:18.679Z,672
2017-01-04T11:32:18.723Z,784
2017-01-04T11:33:18.332Z,704
2017-01-04T11:34:18.364Z,572
2017-01-04T11:35:18.773Z,616
2017-01-04T11:36:19.195Z,676
2017-01-04T11:37:19.223Z,680
2017-01-04T11:38:18.859Z,784
2017-01-04T11:39:19.276Z,800
2017-01-04T11:40:18.521Z,692
2017-01-04T11:41:19.366Z,632
2017-01-04T11:42:19.755Z,592
2017-01-04T11:43:19.807Z,608
2017-01-04T11:44:18.619Z,636
2017-01-04T11:45:19.036Z,616
2017-01-04T11:46:19.465Z,636
2017-01-04T11:47:19.089Z,696
2017-01-04T11:48:19.122Z,772
2017-01-04T11:49:19.139Z,684
2017-01-04T11:50:19.564Z,668
2017-01-04T11:51:19.584Z,648
2017-01-04T11:52:19.601Z,580
2017-01-04T11:53:19.642Z,612
2017-01-04T11:54:19.278Z,716
2017-01-04T11:55:18.904Z,632
2017-01-04T11:56:19.321Z,660
2017-01-04T11:57:19.737Z,720
2017-01-04T11:58:20.169Z,704
2017-01-04T11:59:20.198Z,600
2017-01-04T12:00:20.219Z,656
2017-01-04T12:01:20.247Z,664
2017-01-04T12:02:19.880Z,804
2017-01-04T12:03:19.513Z,768
2017-01-04T12:04:19.533Z,772
2017-01-04T12:05:20.354Z,832
2017-01-04T12:06:19.980Z,784
2017-01-04T12:07:20.004Z,764
2017-01-04T12:08:20.033Z,652
2017-01-04T12:09:20.478Z,660
2017-01-04T12:10:19.683Z,624
2017-01-04T12:11:20.516Z,552
2017-01-04T12:12:20.136Z,624
2017-01-04T12:13:20.156Z,572
2017-01-04T12:14:19.394Z,580
2017-01-04T12:15:19.814Z,624
2017-01-04T12:16:20.651Z,612
2017-01-04T12:17:19.468Z,700
2017-01-04T12:18:20.288Z,612
2017-01-04T12:19:20.322Z,532
2017-01-04T12:20:20.346Z,552
2017-01-04T12:21:19.575Z,632
2017-01-04T12:22:20.401Z,660
2017-01-04T12:23:20.025Z,628
2017-01-04T12:24:20.050Z,664
2017-01-04T12:25:19.687Z,736
2017-01-04T12:26:19.709Z,688
2017-01-04T12:27:20.521Z,672
2017-01-04T12:28:20.607Z,608
2017-01-04T12:29:20.579Z,604
2017-01-04T12:30:19.800Z,616
2017-01-04T12:31:20.625Z,620
2017-01-04T12:32:20.650Z,636
2017-01-04T12:33:20.696Z,688
2017-01-04T12:34:20.704Z,756
2017-01-04T12:35:20.741Z,696
2017-01-04T12:36:21.162Z,724
2017-01-04T12:37:20.787Z,692
2017-01-04T12:38:20.020Z,612
2017-01-04T12:39:20.445Z,872
2017-01-04T12:40:20.074Z,832
2017-01-04T12:41:20.494Z,864
2017-01-04T12:42:20.539Z,772
2017-01-04T12:43:20.549Z,688
2017-01-04T12:44:21.365Z,604
2017-01-04T12:45:20.594Z,648
2017-01-04T12:46:20.627Z,840
2017-01-04T12:47:20.652Z,748
2017-01-04T12:48:20.681Z,708
2017-01-04T12:49:20.636Z,664
2017-01-04T12:50:20.759Z,756
2017-01-04T12:51:21.551Z,760
2017-01-04T12:52:21.572Z,992
2017-01-04T12:53:20.813Z,1148
2017-01-04T12:54:20.826Z,1168
2017-01-04T12:55:20.867Z,724
2017-01-04T12:56:20.521Z,728
2017-01-04T12:57:21.701Z,776
2017-01-04T12:58:20.542Z,892
2017-01-04T12:59:21.382Z,1084
2017-01-04T13:00:21.780Z,1224
2017-01-04T13:01:21.805Z,996
2017-01-04T13:02:21.437Z,792
2017-01-04T13:03:21.482Z,668
2017-01-04T13:04:21.887Z,752
2017-01-04T13:05:21.525Z,668
2017-01-04T13:06:21.145Z,636
2017-01-04T13:07:22.026Z,660
2017-01-04T13:08:21.594Z,756
2017-01-04T13:09:21.635Z,728
2017-01-04T13:10:21.652Z,776
2017-01-04T13:11:21.277Z,900
2017-01-04T13:12:20.930Z,924
2017-01-04T13:13:21.735Z,772
2017-01-04T13:14:21.371Z,860
2017-01-04T13:15:21.393Z,984
2017-01-04T13:16:21.013Z,888
2017-01-04T13:17:21.832Z,872
2017-01-04T13:18:21.850Z,836
2017-01-04T13:19:22.303Z,820
2017-01-04T13:20:21.112Z,764
2017-01-04T13:21:21.145Z,840
2017-01-04T13:22:21.563Z,820
2017-01-04T13:23:22.014Z,872
2017-01-04T13:24:22.404Z,764
2017-01-04T13:25:22.060Z,684
2017-01-04T13:26:22.070Z,632
2017-01-04T13:27:21.698Z,632
2017-01-04T13:28:22.121Z,576
2017-01-04T13:29:21.795Z,500
2017-01-04T13:30:21.808Z,464
2017-01-04T13:31:22.210Z,616
2017-01-04T13:32:22.222Z,784
2017-01-04T13:33:22.255Z,864
2017-01-04T13:34:21.880Z,752
2017-01-04T13:35:21.900Z,664
2017-01-04T13:36:22.321Z,700
2017-01-04T13:37:21.962Z,576
2017-01-04T13:38:22.791Z,532
2017-01-04T13:39:22.399Z,604
2017-01-04T13:40:22.032Z,820
2017-01-04T13:41:22.064Z,748
2017-01-04T13:42:22.482Z,752
2017-01-04T13:43:22.538Z,744
2017-01-04T13:44:21.747Z,548
2017-01-04T13:45:22.581Z,500
2017-01-04T13:46:22.585Z,548
2017-01-04T13:47:22.610Z,636
2017-01-04T13:48:21.844Z,640
2017-01-04T13:49:22.279Z,584
2017-01-04T13:50:22.295Z,448
2017-01-04T13:51:23.128Z,580
2017-01-04T13:52:22.353Z,740
2017-01-04T13:53:22.373Z,452
2017-01-04T13:54:22.789Z,376
2017-01-04T13:55:22.046Z,388
2017-01-04T13:56:23.263Z,664
2017-01-04T13:57:22.880Z,1040
2017-01-04T13:58:22.888Z,888
2017-01-04T13:59:22.137Z,564
2017-01-04T14:00:22.974Z,636
2017-01-04T14:01:22.978Z,1212
2017-01-04T14:02:23.390Z,668
2017-01-04T14:03:23.035Z,436
2017-01-04T14:04:22.256Z,448
2017-01-04T14:05:22.288Z,496
2017-01-04T14:06:22.313Z,688
2017-01-04T14:07:23.538Z,1172
2017-01-04T14:08:23.158Z,1356
2017-01-04T14:09:22.387Z,1276
2017-01-04T14:10:23.196Z,920
2017-01-04T14:11:22.836Z,976
2017-01-04T14:12:22.460Z,964
2017-01-04T14:13:22.881Z,948
2017-01-04T14:14:23.309Z,1480
2017-01-04T14:15:22.543Z,1640
2017-01-04T14:16:22.992Z,1500
2017-01-04T14:17:23.400Z,792
2017-01-04T14:18:23.809Z,704